Svitzer Leixoes — CSXW6 — position and weather

sailwx.info

Track history (hours):
 
Tides and Currents Weather Stations Pressure Air Temp Water Temp Dewpoint Dewpoint Depression Visibility Wind Speed Wind Dir Waves Ship Positions

Svitzer Leixoes

Last reported at 2017-Feb-24 20:33 UTC. Time now 2017-Feb-24 21:34 UTC.
Position N 38°42' W 009°10'.

Length 28 m; draft 3.6 m.

Type: Towing. MMSI: 263622000.

Date/timePositionNaut miles runAvg speedWind from/ knotsBaromVisibWave heightAir tempDewpointWater temp
2017-Feb-24 20:33N 38°42' W 009°10'0 0.0
2017-Feb-24 19:22N 38°42' W 009°10'2 2.1
2017-Feb-24 18:25N 38°40' W 009°09'1 1.5
2017-Feb-24 17:33N 38°41' W 009°08'2 1.3
2017-Feb-24 16:13N 38°42' W 009°10'0 0.0
2017-Feb-24 15:25N 38°42' W 009°10'0 0.0
2017-Feb-24 13:31N 38°42' W 009°10'2 1.6
2017-Feb-24 12:32N 38°41' W 009°11'2 1.7
2017-Feb-24 11:33N 38°42' W 009°09'0 0.1
2017-Feb-24 09:26N 38°42' W 009°10'0 0.0
2017-Feb-24 06:11N 38°42' W 009°10'0 0.0
2017-Feb-24 03:31N 38°42' W 009°10'0 0.0
2017-Feb-24 01:19N 38°42' W 009°10'0 0.3
2017-Feb-24 00:28N 38°42' W 009°10'0 0.1
2017-Feb-23 21:32N 38°42' W 009°10'0 0.1
2017-Feb-23 20:13N 38°42' W 009°09'2 3.4
2017-Feb-23 19:33N 38°41' W 009°12'2 2.1
2017-Feb-23 18:31N 38°42' W 009°09'0 0.2
2017-Feb-23 17:34N 38°42' W 009°10'0 0.0
2017-Feb-23 15:21N 38°42' W 009°10'0 0.0
2017-Feb-23 14:27N 38°42' W 009°10'0 0.0
2017-Feb-23 13:25N 38°42' W 009°10'0 0.1
2017-Feb-23 12:32N 38°42' W 009°10'2 2.0
2017-Feb-23 11:31N 38°42' W 009°07'1 0.8
2017-Feb-23 10:33N 38°42' W 009°08'1 1.1
2017-Feb-23 09:19N 38°42' W 009°10'0 0.5
2017-Feb-23 08:32N 38°42' W 009°10'1 0.7
2017-Feb-23 07:25N 38°42' W 009°11'1 1.4
2017-Feb-23 06:32N 38°42' W 009°10'1 0.6
2017-Feb-23 05:30N 38°42' W 009°10'1 0.6
2017-Feb-23 04:28N 38°42' W 009°10'0 0.0
2017-Feb-23 03:31N 38°42' W 009°10'0 0.0
2017-Feb-23 02:33N 38°42' W 009°10'0 0.0
2017-Feb-23 01:33N 38°42' W 009°10'0 0.0
2017-Feb-23 00:29N 38°42' W 009°10'0 0.0
2017-Feb-22 23:34N 38°42' W 009°10'0 0.0
2017-Feb-22 22:08N 38°42' W 009°10'0 0.0
2017-Feb-22 21:28N 38°42' W 009°10'0 0.0
2017-Feb-22 20:29N 38°42' W 009°10'0 0.0
2017-Feb-22 19:30N 38°42' W 009°10'0 0.0
2017-Feb-22 18:26N 38°42' W 009°10'2 2.1
2017-Feb-22 17:18N 38°41' W 009°12'2 2.6
2017-Feb-22 16:24N 38°42' W 009°10'0 0.0
2017-Feb-22 14:33N 38°42' W 009°10'0 0.0
2017-Feb-22 13:33N 38°42' W 009°10'0 0.1
2017-Feb-22 12:31N 38°42' W 009°10'4 4.2
2017-Feb-22 11:33N 38°41' W 009°14'3 3.3
2017-Feb-22 10:34N 38°42' W 009°10'1 0.7
2017-Feb-22 09:28N 38°42' W 009°10'0 0.0
2017-Feb-22 08:21N 38°42' W 009°10'0 0.0
2017-Feb-22 07:33N 38°42' W 009°10'1 0.9
2017-Feb-22 06:22N 38°41' W 009°11'1 0.4
2017-Feb-22 04:26N 38°42' W 009°10'0 0.2
2017-Feb-22 02:28N 38°42' W 009°10'0 0.0
2017-Feb-22 01:33N 38°42' W 009°10'0 0.0
2017-Feb-22 00:26N 38°42' W 009°10'0 0.0
2017-Feb-21 23:04N 38°42' W 009°10'0 0.0
2017-Feb-21 22:33N 38°42' W 009°10'0 0.0
2017-Feb-21 21:34N 38°42' W 009°10'0 0.0
2017-Feb-21 20:33N 38°42' W 009°10'0 0.0
2017-Feb-21 18:32N 38°42' W 009°10'0 0.0
2017-Feb-21 17:32N 38°42' W 009°10'0 0.0
2017-Feb-21 16:22N 38°42' W 009°10'0 0.0
2017-Feb-21 15:05N 38°42' W 009°10'0 0.0
2017-Feb-21 14:04N 38°42' W 009°10'0 0.0
2017-Feb-21 13:23N 38°42' W 009°10'0 0.0
2017-Feb-21 12:10N 38°42' W 009°10'0 0.0
2017-Feb-21 11:24N 38°42' W 009°10'0 0.0
2017-Feb-21 10:33N 38°42' W 009°10'0 0.0
2017-Feb-21 09:31N 38°42' W 009°10'0 0.0
2017-Feb-21 08:31N 38°42' W 009°10'0 0.3
2017-Feb-21 07:30N 38°42' W 009°10'1 1.1
2017-Feb-21 06:34N 38°41' W 009°11'1 1.1
2017-Feb-21 05:26N 38°42' W 009°10'0 0.0
2017-Feb-21 04:28N 38°42' W 009°10'0 0.0
2017-Feb-21 03:20N 38°42' W 009°10'2 2.8
2017-Feb-21 02:33N 38°43' W 009°07'1 0.8
2017-Feb-21 01:32N 38°43' W 009°06'3 2.3
2017-Feb-21 00:17N 38°42' W 009°10'2 2.1
2017-Feb-20 23:30N 38°41' W 009°11'1 0.6
2017-Feb-20 22:32N 38°41' W 009°12'1 0.7
2017-Feb-20 21:33N 38°42' W 009°12'2 1.7
2017-Feb-20 20:34N 38°42' W 009°10'0 0.0
2017-Feb-20 19:33N 38°42' W 009°10'3 3.0
2017-Feb-20 18:33N 38°41' W 009°06'1 1.3
2017-Feb-20 17:32N 38°41' W 009°05'4 3.2
2017-Feb-20 16:18N 38°42' W 009°10'0 0.6
2017-Feb-20 15:33N 38°42' W 009°10'0 0.0
2017-Feb-20 14:34N 38°42' W 009°10'0 0.0
2017-Feb-20 12:33N 38°42' W 009°10'0 0.0
2017-Feb-20 11:28N 38°42' W 009°10'0 0.0
2017-Feb-20 10:32N 38°42' W 009°10'0 0.0
2017-Feb-20 09:31N 38°42' W 009°10'0 0.0
2017-Feb-20 08:25N 38°42' W 009°10'0 0.0
2017-Feb-20 07:28N 38°42' W 009°10'0 0.0
2017-Feb-20 06:30N 38°42' W 009°10'0 0.0
2017-Feb-20 05:31N 38°42' W 009°10'0 0.0
2017-Feb-20 04:33N 38°42' W 009°10'0 0.0
2017-Feb-20 03:27N 38°42' W 009°10'0 0.0
2017-Feb-20 02:31N 38°42' W 009°10'0 0.0
2017-Feb-20 01:31N 38°42' W 009°10'0 0.0
2017-Feb-20 00:34N 38°42' W 009°10'3 2.5
2017-Feb-19 23:34N 38°43' W 009°07'1 0.6
2017-Feb-19 22:33N 38°43' W 009°07'1 1.5
2017-Feb-19 21:33N 38°42' W 009°09'1 0.4
2017-Feb-19 20:15N 38°42' W 009°10'0 0.0
2017-Feb-19 19:33N 38°42' W 009°10'0 0.0
2017-Feb-19 18:28N 38°42' W 009°10'0 0.0
2017-Feb-19 17:32N 38°42' W 009°10'0 0.0
2017-Feb-19 16:26N 38°42' W 009°10'0 0.0
2017-Feb-19 15:34N 38°42' W 009°10'0 0.0
2017-Feb-19 14:30N 38°42' W 009°10'0 0.0
2017-Feb-19 13:18N 38°42' W 009°10'0 0.0
2017-Feb-19 12:31N 38°42' W 009°10'0 0.0
2017-Feb-19 11:32N 38°42' W 009°10'0 0.0
2017-Feb-19 10:33N 38°42' W 009°10'0 0.0
2017-Feb-19 09:14N 38°42' W 009°10'0 0.0
2017-Feb-19 08:32N 38°42' W 009°10'0 0.0
2017-Feb-19 07:31N 38°42' W 009°10'0 0.0
2017-Feb-19 06:30N 38°42' W 009°10'0 0.0
2017-Feb-19 05:28N 38°42' W 009°10'0 0.0
2017-Feb-19 04:26N 38°42' W 009°10'0 0.0
2017-Feb-19 03:30N 38°42' W 009°10'0 0.0
2017-Feb-19 02:25N 38°42' W 009°10'0 0.0
2017-Feb-19 01:29N 38°42' W 009°10'0 0.0
2017-Feb-19 00:15N 38°42' W 009°10'0 0.0
2017-Feb-18 23:29N 38°42' W 009°10'0 0.0
2017-Feb-18 22:22N 38°42' W 009°10'3 1.8
2017-Feb-18 20:32N 38°44' W 009°06'3 0.8
2017-Feb-18 16:33N 38°42' W 009°09'0 0.2
2017-Feb-18 15:31N 38°42' W 009°10'0 0.0
2017-Feb-18 14:09N 38°42' W 009°10'0 0.0
2017-Feb-18 13:27N 38°42' W 009°10'0 0.0
2017-Feb-18 12:10N 38°42' W 009°10'0 0.0
2017-Feb-18 11:10N 38°42' W 009°10'0 0.0
2017-Feb-18 10:33N 38°42' W 009°10'0 0.0
2017-Feb-18 09:33N 38°42' W 009°10'0 0.0
2017-Feb-18 08:31N 38°42' W 009°10'0 0.0
2017-Feb-18 07:17N 38°42' W 009°10'3 3.3
2017-Feb-18 06:24N 38°43' W 009°06'3 3.1
2017-Feb-18 05:33N 38°42' W 009°09'0 0.1
2017-Feb-18 04:25N 38°42' W 009°10'0 0.0
2017-Feb-18 03:13N 38°42' W 009°10'0 0.0
2017-Feb-18 02:15N 38°42' W 009°10'0 0.0
2017-Feb-18 01:33N 38°42' W 009°10'0 0.0
2017-Feb-18 00:31N 38°42' W 009°10'0 0.0
2017-Feb-17 23:34N 38°42' W 009°10'2 1.7
2017-Feb-17 22:33N 38°42' W 009°07'3 2.5
2017-Feb-17 21:33N 38°42' W 009°11'1 0.9
2017-Feb-17 20:32N 38°42' W 009°10'0 0.0
2017-Feb-17 19:34N 38°42' W 009°10'0 0.0
2017-Feb-17 18:27N 38°42' W 009°10'0 0.0
2017-Feb-17 17:19N 38°42' W 009°10'0 0.0
2017-Feb-17 16:32N 38°42' W 009°10'0 0.0
2017-Feb-17 15:32N 38°42' W 009°10'0 0.0
2017-Feb-17 14:33N 38°42' W 009°10'0 0.0
2017-Feb-17 13:22N 38°42' W 009°10'0 0.0
2017-Feb-17 12:17N 38°42' W 009°10'0 0.0
2017-Feb-17 11:31N 38°42' W 009°10'0 0.0
2017-Feb-17 10:32N 38°42' W 009°10'0 0.0
2017-Feb-17 09:13N 38°42' W 009°10'0 0.0
2017-Feb-17 08:32N 38°42' W 009°10'0 0.0
2017-Feb-17 07:34N 38°42' W 009°10'0 0.0
2017-Feb-17 06:22N 38°42' W 009°10'0 0.0
2017-Feb-17 05:30N 38°42' W 009°10'0 0.0
2017-Feb-17 04:29N 38°42' W 009°10'0 0.0
2017-Feb-17 03:27N 38°42' W 009°10'0 0.0
2017-Feb-17 02:24N 38°42' W 009°10'0 0.0
2017-Feb-16 23:32N 38°42' W 009°10'0 0.0
2017-Feb-16 22:24N 38°42' W 009°10'0 0.0
2017-Feb-16 21:23N 38°42' W 009°10'0 0.0
2017-Feb-16 20:29N 38°42' W 009°10'0 0.1
2017-Feb-16 19:32N 38°42' W 009°09'0 0.1
2017-Feb-16 18:28N 38°42' W 009°09'0 0.2
2017-Feb-16 17:28N 38°42' W 009°10'0 0.0
2017-Feb-16 16:34N 38°42' W 009°10'0 0.0
2017-Feb-16 15:33N 38°42' W 009°10'0 0.0
2017-Feb-16 14:33N 38°42' W 009°10'0 0.0
2017-Feb-16 13:15N 38°42' W 009°10'0 0.0
2017-Feb-16 12:30N 38°42' W 009°10'0 0.0
2017-Feb-16 11:30N 38°42' W 009°10'0 0.0
2017-Feb-16 10:20N 38°42' W 009°10'0 0.1
2017-Feb-16 09:32N 38°42' W 009°10'0 0.1
2017-Feb-16 08:32N 38°42' W 009°10'4 3.7
2017-Feb-16 07:34N 38°41' W 009°14'4 3.7
2017-Feb-16 06:33N 38°42' W 009°10'0 0.1
2017-Feb-16 05:34N 38°42' W 009°10'0 0.0
2017-Feb-16 04:30N 38°42' W 009°10'0 0.0
2017-Feb-16 03:10N 38°42' W 009°10'0 0.0
2017-Feb-16 00:28N 38°42' W 009°10'0 0.0
2017-Feb-15 22:19N 38°42' W 009°10'0 0.0
2017-Feb-15 21:33N 38°42' W 009°10'0 0.0
2017-Feb-15 20:13N 38°42' W 009°10'0 0.0
2017-Feb-15 19:24N 38°42' W 009°10'0 0.4
2017-Feb-15 18:33N 38°42' W 009°10'4 4.4
2017-Feb-15 17:33N 38°41' W 009°05'4 4.0
2017-Feb-15 16:31N 38°42' W 009°10'0 0.0
2017-Feb-15 15:33N 38°42' W 009°10'2 2.0
2017-Feb-15 14:33N 38°40' W 009°09'0 0.3
2017-Feb-15 13:33N 38°40' W 009°09'0 0.1
2017-Feb-15 12:09N 38°40' W 009°09'0 0.3
2017-Feb-15 11:32N 38°40' W 009°09'0 0.1
2017-Feb-15 10:33N 38°40' W 009°09'0 0.3
2017-Feb-15 09:28N 38°40' W 009°09'2 2.0
2017-Feb-15 08:33N 38°42' W 009°10'0 0.0
2017-Feb-15 07:31N 38°42' W 009°10'0 0.0
2017-Feb-15 06:29N 38°42' W 009°10'0 0.4
2017-Feb-15 05:29N 38°42' W 009°10'0 0.4
2017-Feb-15 04:30N 38°42' W 009°10'0 0.0
2017-Feb-15 03:33N 38°42' W 009°10'1 0.5
2017-Feb-15 02:30N 38°42' W 009°10'0 0.2
2017-Feb-15 01:27N 38°42' W 009°10'0 0.2
2017-Feb-15 00:32N 38°42' W 009°10'1 1.2
2017-Feb-14 23:27N 38°41' W 009°11'0 0.0
2017-Feb-14 22:30N 38°41' W 009°11'2 1.7
2017-Feb-14 21:28N 38°42' W 009°10'  
Track history (hours):
 
Tides and Currents Weather Stations Pressure Air Temp Water Temp Dewpoint Dewpoint Depression Visibility Wind Speed Wind Dir Waves Ship Positions

Svitzer Leixoes

Last reported at 2017-Feb-24 20:33 UTC. Time now 2017-Feb-24 21:34 UTC.
Position N 38°42' W 009°10'.

Length 28 m; draft 3.6 m.

Type: Towing. MMSI: 263622000.

Date/timePositionNaut miles runAvg speedWind from/ knotsBaromVisibWave heightAir tempDewpointWater temp
2017-Feb-24 20:33N 38°42' W 009°10'0 0.0
2017-Feb-24 19:22N 38°42' W 009°10'2 2.1
2017-Feb-24 18:25N 38°40' W 009°09'1 1.5
2017-Feb-24 17:33N 38°41' W 009°08'2 1.3
2017-Feb-24 16:13N 38°42' W 009°10'0 0.0
2017-Feb-24 15:25N 38°42' W 009°10'0 0.0
2017-Feb-24 13:31N 38°42' W 009°10'2 1.6
2017-Feb-24 12:32N 38°41' W 009°11'2 1.7
2017-Feb-24 11:33N 38°42' W 009°09'0 0.1
2017-Feb-24 09:26N 38°42' W 009°10'0 0.0
2017-Feb-24 06:11N 38°42' W 009°10'0 0.0
2017-Feb-24 03:31N 38°42' W 009°10'0 0.0
2017-Feb-24 01:19N 38°42' W 009°10'0 0.3
2017-Feb-24 00:28N 38°42' W 009°10'0 0.1
2017-Feb-23 21:32N 38°42' W 009°10'0 0.1
2017-Feb-23 20:13N 38°42' W 009°09'2 3.4
2017-Feb-23 19:33N 38°41' W 009°12'2 2.1
2017-Feb-23 18:31N 38°42' W 009°09'0 0.2
2017-Feb-23 17:34N 38°42' W 009°10'0 0.0
2017-Feb-23 15:21N 38°42' W 009°10'0 0.0
2017-Feb-23 14:27N 38°42' W 009°10'0 0.0
2017-Feb-23 13:25N 38°42' W 009°10'0 0.1
2017-Feb-23 12:32N 38°42' W 009°10'2 2.0
2017-Feb-23 11:31N 38°42' W 009°07'1 0.8
2017-Feb-23 10:33N 38°42' W 009°08'1 1.1
2017-Feb-23 09:19N 38°42' W 009°10'0 0.5
2017-Feb-23 08:32N 38°42' W 009°10'1 0.7
2017-Feb-23 07:25N 38°42' W 009°11'1 1.4
2017-Feb-23 06:32N 38°42' W 009°10'1 0.6
2017-Feb-23 05:30N 38°42' W 009°10'1 0.6
2017-Feb-23 04:28N 38°42' W 009°10'0 0.0
2017-Feb-23 03:31N 38°42' W 009°10'0 0.0
2017-Feb-23 02:33N 38°42' W 009°10'0 0.0
2017-Feb-23 01:33N 38°42' W 009°10'0 0.0
2017-Feb-23 00:29N 38°42' W 009°10'0 0.0
2017-Feb-22 23:34N 38°42' W 009°10'0 0.0
2017-Feb-22 22:08N 38°42' W 009°10'0 0.0
2017-Feb-22 21:28N 38°42' W 009°10'0 0.0
2017-Feb-22 20:29N 38°42' W 009°10'0 0.0
2017-Feb-22 19:30N 38°42' W 009°10'0 0.0
2017-Feb-22 18:26N 38°42' W 009°10'2 2.1
2017-Feb-22 17:18N 38°41' W 009°12'2 2.6
2017-Feb-22 16:24N 38°42' W 009°10'0 0.0
2017-Feb-22 14:33N 38°42' W 009°10'0 0.0
2017-Feb-22 13:33N 38°42' W 009°10'0 0.1
2017-Feb-22 12:31N 38°42' W 009°10'4 4.2
2017-Feb-22 11:33N 38°41' W 009°14'3 3.3
2017-Feb-22 10:34N 38°42' W 009°10'1 0.7
2017-Feb-22 09:28N 38°42' W 009°10'0 0.0
2017-Feb-22 08:21N 38°42' W 009°10'0 0.0
2017-Feb-22 07:33N 38°42' W 009°10'1 0.9
2017-Feb-22 06:22N 38°41' W 009°11'1 0.4
2017-Feb-22 04:26N 38°42' W 009°10'0 0.2
2017-Feb-22 02:28N 38°42' W 009°10'0 0.0
2017-Feb-22 01:33N 38°42' W 009°10'0 0.0
2017-Feb-22 00:26N 38°42' W 009°10'0 0.0
2017-Feb-21 23:04N 38°42' W 009°10'0 0.0
2017-Feb-21 22:33N 38°42' W 009°10'0 0.0
2017-Feb-21 21:34N 38°42' W 009°10'0 0.0
2017-Feb-21 20:33N 38°42' W 009°10'0 0.0
2017-Feb-21 18:32N 38°42' W 009°10'0 0.0
2017-Feb-21 17:32N 38°42' W 009°10'0 0.0
2017-Feb-21 16:22N 38°42' W 009°10'0 0.0
2017-Feb-21 15:05N 38°42' W 009°10'0 0.0
2017-Feb-21 14:04N 38°42' W 009°10'0 0.0
2017-Feb-21 13:23N 38°42' W 009°10'0 0.0
2017-Feb-21 12:10N 38°42' W 009°10'0 0.0
2017-Feb-21 11:24N 38°42' W 009°10'0 0.0
2017-Feb-21 10:33N 38°42' W 009°10'0 0.0
2017-Feb-21 09:31N 38°42' W 009°10'0 0.0
2017-Feb-21 08:31N 38°42' W 009°10'0 0.3
2017-Feb-21 07:30N 38°42' W 009°10'1 1.1
2017-Feb-21 06:34N 38°41' W 009°11'1 1.1
2017-Feb-21 05:26N 38°42' W 009°10'0 0.0
2017-Feb-21 04:28N 38°42' W 009°10'0 0.0
2017-Feb-21 03:20N 38°42' W 009°10'2 2.8
2017-Feb-21 02:33N 38°43' W 009°07'1 0.8
2017-Feb-21 01:32N 38°43' W 009°06'3 2.3
2017-Feb-21 00:17N 38°42' W 009°10'2 2.1
2017-Feb-20 23:30N 38°41' W 009°11'1 0.6
2017-Feb-20 22:32N 38°41' W 009°12'1 0.7
2017-Feb-20 21:33N 38°42' W 009°12'2 1.7
2017-Feb-20 20:34N 38°42' W 009°10'0 0.0
2017-Feb-20 19:33N 38°42' W 009°10'3 3.0
2017-Feb-20 18:33N 38°41' W 009°06'1 1.3
2017-Feb-20 17:32N 38°41' W 009°05'4 3.2
2017-Feb-20 16:18N 38°42' W 009°10'0 0.6
2017-Feb-20 15:33N 38°42' W 009°10'0 0.0
2017-Feb-20 14:34N 38°42' W 009°10'0 0.0
2017-Feb-20 12:33N 38°42' W 009°10'0 0.0
2017-Feb-20 11:28N 38°42' W 009°10'0 0.0
2017-Feb-20 10:32N 38°42' W 009°10'0 0.0
2017-Feb-20 09:31N 38°42' W 009°10'0 0.0
2017-Feb-20 08:25N 38°42' W 009°10'0 0.0
2017-Feb-20 07:28N 38°42' W 009°10'0 0.0
2017-Feb-20 06:30N 38°42' W 009°10'0 0.0
2017-Feb-20 05:31N 38°42' W 009°10'0 0.0
2017-Feb-20 04:33N 38°42' W 009°10'0 0.0
2017-Feb-20 03:27N 38°42' W 009°10'0 0.0
2017-Feb-20 02:31N 38°42' W 009°10'0 0.0
2017-Feb-20 01:31N 38°42' W 009°10'0 0.0
2017-Feb-20 00:34N 38°42' W 009°10'3 2.5
2017-Feb-19 23:34N 38°43' W 009°07'1 0.6
2017-Feb-19 22:33N 38°43' W 009°07'1 1.5
2017-Feb-19 21:33N 38°42' W 009°09'1 0.4
2017-Feb-19 20:15N 38°42' W 009°10'0 0.0
2017-Feb-19 19:33N 38°42' W 009°10'0 0.0
2017-Feb-19 18:28N 38°42' W 009°10'0 0.0
2017-Feb-19 17:32N 38°42' W 009°10'0 0.0
2017-Feb-19 16:26N 38°42' W 009°10'0 0.0
2017-Feb-19 15:34N 38°42' W 009°10'0 0.0
2017-Feb-19 14:30N 38°42' W 009°10'0 0.0
2017-Feb-19 13:18N 38°42' W 009°10'0 0.0
2017-Feb-19 12:31N 38°42' W 009°10'0 0.0
2017-Feb-19 11:32N 38°42' W 009°10'0 0.0
2017-Feb-19 10:33N 38°42' W 009°10'0 0.0
2017-Feb-19 09:14N 38°42' W 009°10'0 0.0
2017-Feb-19 08:32N 38°42' W 009°10'0 0.0
2017-Feb-19 07:31N 38°42' W 009°10'0 0.0
2017-Feb-19 06:30N 38°42' W 009°10'0 0.0
2017-Feb-19 05:28N 38°42' W 009°10'0 0.0
2017-Feb-19 04:26N 38°42' W 009°10'0 0.0
2017-Feb-19 03:30N 38°42' W 009°10'0 0.0
2017-Feb-19 02:25N 38°42' W 009°10'0 0.0
2017-Feb-19 01:29N 38°42' W 009°10'0 0.0
2017-Feb-19 00:15N 38°42' W 009°10'0 0.0
2017-Feb-18 23:29N 38°42' W 009°10'0 0.0
2017-Feb-18 22:22N 38°42' W 009°10'3 1.8
2017-Feb-18 20:32N 38°44' W 009°06'3 0.8
2017-Feb-18 16:33N 38°42' W 009°09'0 0.2
2017-Feb-18 15:31N 38°42' W 009°10'0 0.0
2017-Feb-18 14:09N 38°42' W 009°10'0 0.0
2017-Feb-18 13:27N 38°42' W 009°10'0 0.0
2017-Feb-18 12:10N 38°42' W 009°10'0 0.0
2017-Feb-18 11:10N 38°42' W 009°10'0 0.0
2017-Feb-18 10:33N 38°42' W 009°10'0 0.0
2017-Feb-18 09:33N 38°42' W 009°10'0 0.0
2017-Feb-18 08:31N 38°42' W 009°10'0 0.0
2017-Feb-18 07:17N 38°42' W 009°10'3 3.3
2017-Feb-18 06:24N 38°43' W 009°06'3 3.1
2017-Feb-18 05:33N 38°42' W 009°09'0 0.1
2017-Feb-18 04:25N 38°42' W 009°10'0 0.0
2017-Feb-18 03:13N 38°42' W 009°10'0 0.0
2017-Feb-18 02:15N 38°42' W 009°10'0 0.0
2017-Feb-18 01:33N 38°42' W 009°10'0 0.0
2017-Feb-18 00:31N 38°42' W 009°10'0 0.0
2017-Feb-17 23:34N 38°42' W 009°10'2 1.7
2017-Feb-17 22:33N 38°42' W 009°07'3 2.5
2017-Feb-17 21:33N 38°42' W 009°11'1 0.9
2017-Feb-17 20:32N 38°42' W 009°10'0 0.0
2017-Feb-17 19:34N 38°42' W 009°10'0 0.0
2017-Feb-17 18:27N 38°42' W 009°10'0 0.0
2017-Feb-17 17:19N 38°42' W 009°10'0 0.0
2017-Feb-17 16:32N 38°42' W 009°10'0 0.0
2017-Feb-17 15:32N 38°42' W 009°10'0 0.0
2017-Feb-17 14:33N 38°42' W 009°10'0 0.0
2017-Feb-17 13:22N 38°42' W 009°10'0 0.0
2017-Feb-17 12:17N 38°42' W 009°10'0 0.0
2017-Feb-17 11:31N 38°42' W 009°10'0 0.0
2017-Feb-17 10:32N 38°42' W 009°10'0 0.0
2017-Feb-17 09:13N 38°42' W 009°10'0 0.0
2017-Feb-17 08:32N 38°42' W 009°10'0 0.0
2017-Feb-17 07:34N 38°42' W 009°10'0 0.0
2017-Feb-17 06:22N 38°42' W 009°10'0 0.0
2017-Feb-17 05:30N 38°42' W 009°10'0 0.0
2017-Feb-17 04:29N 38°42' W 009°10'0 0.0
2017-Feb-17 03:27N 38°42' W 009°10'0 0.0
2017-Feb-17 02:24N 38°42' W 009°10'0 0.0
2017-Feb-16 23:32N 38°42' W 009°10'0 0.0
2017-Feb-16 22:24N 38°42' W 009°10'0 0.0
2017-Feb-16 21:23N 38°42' W 009°10'0 0.0
2017-Feb-16 20:29N 38°42' W 009°10'0 0.1
2017-Feb-16 19:32N 38°42' W 009°09'0 0.1
2017-Feb-16 18:28N 38°42' W 009°09'0 0.2
2017-Feb-16 17:28N 38°42' W 009°10'0 0.0
2017-Feb-16 16:34N 38°42' W 009°10'0 0.0
2017-Feb-16 15:33N 38°42' W 009°10'0 0.0
2017-Feb-16 14:33N 38°42' W 009°10'0 0.0
2017-Feb-16 13:15N 38°42' W 009°10'0 0.0
2017-Feb-16 12:30N 38°42' W 009°10'0 0.0
2017-Feb-16 11:30N 38°42' W 009°10'0 0.0
2017-Feb-16 10:20N 38°42' W 009°10'0 0.1
2017-Feb-16 09:32N 38°42' W 009°10'0 0.1
2017-Feb-16 08:32N 38°42' W 009°10'4 3.7
2017-Feb-16 07:34N 38°41' W 009°14'4 3.7
2017-Feb-16 06:33N 38°42' W 009°10'0 0.1
2017-Feb-16 05:34N 38°42' W 009°10'0 0.0
2017-Feb-16 04:30N 38°42' W 009°10'0 0.0
2017-Feb-16 03:10N 38°42' W 009°10'0 0.0
2017-Feb-16 00:28N 38°42' W 009°10'0 0.0
2017-Feb-15 22:19N 38°42' W 009°10'0 0.0
2017-Feb-15 21:33N 38°42' W 009°10'0 0.0
2017-Feb-15 20:13N 38°42' W 009°10'0 0.0
2017-Feb-15 19:24N 38°42' W 009°10'0 0.4
2017-Feb-15 18:33N 38°42' W 009°10'4 4.4
2017-Feb-15 17:33N 38°41' W 009°05'4 4.0
2017-Feb-15 16:31N 38°42' W 009°10'0 0.0
2017-Feb-15 15:33N 38°42' W 009°10'2 2.0
2017-Feb-15 14:33N 38°40' W 009°09'0 0.3
2017-Feb-15 13:33N 38°40' W 009°09'0 0.1
2017-Feb-15 12:09N 38°40' W 009°09'0 0.3
2017-Feb-15 11:32N 38°40' W 009°09'0 0.1
2017-Feb-15 10:33N 38°40' W 009°09'0 0.3
2017-Feb-15 09:28N 38°40' W 009°09'2 2.0
2017-Feb-15 08:33N 38°42' W 009°10'0 0.0
2017-Feb-15 07:31N 38°42' W 009°10'0 0.0
2017-Feb-15 06:29N 38°42' W 009°10'0 0.4
2017-Feb-15 05:29N 38°42' W 009°10'0 0.4
2017-Feb-15 04:30N 38°42' W 009°10'0 0.0
2017-Feb-15 03:33N 38°42' W 009°10'1 0.5
2017-Feb-15 02:30N 38°42' W 009°10'0 0.2
2017-Feb-15 01:27N 38°42' W 009°10'0 0.2
2017-Feb-15 00:32N 38°42' W 009°10'1 1.2
2017-Feb-14 23:27N 38°41' W 009°11'0 0.0
2017-Feb-14 22:30N 38°41' W 009°11'2 1.7
2017-Feb-14 21:28N 38°42' W 009°10'  

Dump ship's entire track history